createdAt,value
2019-02-28T00:02:10.301Z,3.85
2019-02-28T00:04:37.057Z,3.40
2019-02-28T00:07:04.221Z,4.00
2019-02-28T00:09:31.110Z,3.55
2019-02-28T00:11:58.028Z,3.70
2019-02-28T00:14:27.672Z,3.80
2019-02-28T00:16:53.817Z,4.00
2019-02-28T00:19:23.836Z,3.40
2019-02-28T00:21:49.951Z,3.80
2019-02-28T00:24:16.691Z,3.58
2019-02-28T00:26:47.611Z,3.60
2019-02-28T00:29:12.089Z,3.90
2019-02-28T00:31:38.951Z,3.83
2019-02-28T00:34:05.781Z,3.60
2019-02-28T00:36:32.880Z,3.77
2019-02-28T00:39:00.674Z,3.85
2019-02-28T00:41:27.687Z,3.83
2019-02-28T00:43:56.911Z,3.90
2019-02-28T00:46:24.016Z,3.52
2019-02-28T00:48:52.940Z,3.40
2019-02-28T00:51:19.408Z,3.58
2019-02-28T00:53:46.433Z,3.33
2019-02-28T00:56:13.980Z,3.75
2019-02-28T00:58:41.072Z,3.62
2019-02-28T01:01:08.480Z,3.83
2019-02-28T01:03:36.849Z,3.85
2019-02-28T01:06:03.604Z,4.08
2019-02-28T01:08:31.122Z,3.35
2019-02-28T01:10:58.064Z,3.35
2019-02-28T01:13:27.287Z,3.50
2019-02-28T01:15:53.575Z,3.27
2019-02-28T01:18:20.335Z,3.62
2019-02-28T01:20:49.928Z,3.45
2019-02-28T01:23:15.837Z,3.87
2019-02-28T01:25:44.985Z,3.45
2019-02-28T01:28:11.736Z,3.80
2019-02-28T01:30:40.604Z,3.47
2019-02-28T01:33:07.138Z,3.65
2019-02-28T01:35:33.967Z,3.77
2019-02-28T01:38:01.184Z,3.75
2019-02-28T01:40:28.273Z,3.72
2019-02-28T01:42:55.352Z,4.03
2019-02-28T01:45:22.063Z,3.45
2019-02-28T01:47:51.702Z,3.62
2019-02-28T01:50:18.059Z,3.55
2019-02-28T01:52:46.119Z,3.85
2019-02-28T01:55:13.132Z,3.62
2019-02-28T01:57:43.814Z,3.58
2019-02-28T02:00:15.822Z,3.58
2019-02-28T02:02:42.582Z,3.25
2019-02-28T02:05:09.435Z,3.60
2019-02-28T02:07:36.576Z,3.47
2019-02-28T02:10:13.512Z,3.45
2019-02-28T02:12:40.315Z,3.70
2019-02-28T02:15:10.102Z,3.58
2019-02-28T02:17:37.384Z,3.60
2019-02-28T02:20:09.413Z,3.50
2019-02-28T02:22:36.451Z,3.62
2019-02-28T02:25:04.884Z,3.60
2019-02-28T02:27:31.641Z,3.47
2019-02-28T02:29:58.411Z,3.83
2019-02-28T02:32:25.504Z,3.52
2019-02-28T02:34:52.356Z,3.30
2019-02-28T02:37:19.090Z,3.62
2019-02-28T02:39:50.125Z,3.50
2019-02-28T02:42:15.207Z,3.58
2019-02-28T02:44:41.967Z,4.00
2019-02-28T02:47:08.693Z,3.58
2019-02-28T02:49:35.488Z,3.25
2019-02-28T02:52:02.228Z,3.20
2019-02-28T02:54:28.972Z,3.83
2019-02-28T02:56:55.854Z,3.22
2019-02-28T02:59:22.610Z,3.47
2019-02-28T03:01:49.440Z,3.45
2019-02-28T03:04:21.408Z,3.30
2019-02-28T03:06:45.855Z,3.45
2019-02-28T03:09:13.535Z,3.33
2019-02-28T03:11:40.490Z,3.58
2019-02-28T03:14:07.689Z,3.90
2019-02-28T03:16:34.705Z,3.30
2019-02-28T03:19:02.362Z,3.27
2019-02-28T03:21:29.330Z,3.10
2019-02-28T03:23:56.438Z,3.62
2019-02-28T03:26:23.190Z,3.60
2019-02-28T03:28:50.403Z,3.67
2019-02-28T03:31:17.176Z,3.77
2019-02-28T03:33:44.357Z,3.37
2019-02-28T03:36:11.058Z,3.83
2019-02-28T03:38:37.822Z,3.22
2019-02-28T03:41:04.975Z,3.47
2019-02-28T03:43:31.825Z,3.60
2019-02-28T03:45:58.663Z,3.50
2019-02-28T03:48:25.399Z,3.55
2019-02-28T03:50:55.384Z,3.55
2019-02-28T03:53:21.544Z,3.62
2019-02-28T03:55:48.403Z,3.47
2019-02-28T03:58:15.169Z,3.75
2019-02-28T04:00:42.585Z,3.40
2019-02-28T04:03:09.322Z,3.25
2019-02-28T04:05:36.655Z,3.47
2019-02-28T04:08:03.429Z,3.20
2019-02-28T04:10:30.675Z,3.70
2019-02-28T04:12:57.458Z,3.42
2019-02-28T04:15:24.269Z,3.50
2019-02-28T04:17:51.168Z,3.30
2019-02-28T04:20:18.361Z,3.20
2019-02-28T04:22:45.340Z,3.42
2019-02-28T04:25:12.082Z,3.77
2019-02-28T04:27:41.858Z,3.30
2019-02-28T04:30:13.969Z,3.35
2019-02-28T04:32:40.707Z,3.30
2019-02-28T04:35:07.965Z,3.45
2019-02-28T04:37:34.686Z,3.35
2019-02-28T04:40:01.654Z,3.50
2019-02-28T04:42:28.732Z,3.05
2019-02-28T04:44:55.581Z,3.30
2019-02-28T04:47:22.627Z,3.45
2019-02-28T04:49:49.430Z,3.40
2019-02-28T04:52:18.104Z,3.40
2019-02-28T04:54:46.013Z,3.50
2019-02-28T04:57:12.762Z,3.35
2019-02-28T04:59:39.915Z,3.58
2019-02-28T05:02:06.951Z,3.55
2019-02-28T05:04:36.140Z,3.35
2019-02-28T05:07:02.816Z,3.47
2019-02-28T05:09:29.681Z,3.55
2019-02-28T05:11:56.651Z,3.40
2019-02-28T05:14:24.336Z,3.22
2019-02-28T05:16:51.280Z,3.35
2019-02-28T05:19:17.991Z,3.42
2019-02-28T05:21:45.047Z,3.30
2019-02-28T05:24:11.783Z,3.47
2019-02-28T05:26:38.958Z,2.92
2019-02-28T05:29:05.692Z,3.20
2019-02-28T05:31:32.536Z,3.17
2019-02-28T05:34:02.360Z,3.30
2019-02-28T05:36:29.202Z,3.30
2019-02-28T05:38:56.571Z,3.15
2019-02-28T05:41:24.617Z,3.33
2019-02-28T05:43:51.319Z,3.35
2019-02-28T05:46:20.323Z,3.20
2019-02-28T05:48:47.896Z,3.33
2019-02-28T05:51:14.677Z,3.40
2019-02-28T05:53:42.735Z,3.50
2019-02-28T05:56:09.904Z,3.55
2019-02-28T05:58:36.709Z,3.42
2019-02-28T06:01:05.558Z,3.80
2019-02-28T06:03:32.369Z,3.58
2019-02-28T06:05:59.351Z,3.47
2019-02-28T06:08:26.077Z,3.35
2019-02-28T06:10:56.022Z,3.45
2019-02-28T06:13:21.903Z,3.58
2019-02-28T06:15:48.650Z,3.30
2019-02-28T06:18:15.370Z,3.45
2019-02-28T06:20:42.290Z,3.30
2019-02-28T06:23:10.066Z,3.25
2019-02-28T06:25:37.036Z,3.42
2019-02-28T06:28:04.057Z,3.47
2019-02-28T06:30:31.116Z,3.05
2019-02-28T06:32:59.592Z,3.47
2019-02-28T06:35:26.425Z,3.42
2019-02-28T06:37:53.218Z,3.25
2019-02-28T06:40:20.645Z,3.72
2019-02-28T06:42:47.696Z,3.35
2019-02-28T06:45:16.637Z,3.42
2019-02-28T06:47:47.994Z,3.20
2019-02-28T06:50:13.871Z,3.10
2019-02-28T06:52:40.738Z,3.37
2019-02-28T06:55:12.584Z,3.20
2019-02-28T06:57:39.541Z,3.65
2019-02-28T07:00:14.775Z,3.40
2019-02-28T07:02:41.515Z,3.20
2019-02-28T07:05:08.250Z,3.08
2019-02-28T07:07:35.130Z,3.55
2019-02-28T07:10:09.722Z,3.47
2019-02-28T07:12:37.427Z,3.22
2019-02-28T07:15:05.726Z,3.15
2019-02-28T07:17:32.471Z,3.60
2019-02-28T07:20:02.167Z,2.95
2019-02-28T07:22:28.331Z,3.52
2019-02-28T07:24:55.064Z,3.30
2019-02-28T07:27:23.404Z,3.72
2019-02-28T07:29:51.307Z,3.72
2019-02-28T07:32:18.482Z,3.50
2019-02-28T07:34:45.341Z,3.72
2019-02-28T07:37:12.189Z,3.60
2019-02-28T07:39:40.268Z,3.47
2019-02-28T07:42:07.953Z,3.80
2019-02-28T07:44:34.731Z,3.40
2019-02-28T07:47:01.748Z,3.67
2019-02-28T07:49:28.765Z,3.67
2019-02-28T07:51:56.889Z,3.42
2019-02-28T07:54:24.604Z,3.75
2019-02-28T07:56:51.872Z,3.77
2019-02-28T07:59:19.194Z,3.42
2019-02-28T08:01:46.178Z,3.98
2019-02-28T08:04:18.063Z,3.42
2019-02-28T08:06:42.584Z,3.83
2019-02-28T08:09:26.057Z,3.72
2019-02-28T08:11:55.497Z,3.85
2019-02-28T08:14:23.808Z,3.72
2019-02-28T08:16:51.854Z,3.55
2019-02-28T08:19:19.032Z,3.60
2019-02-28T08:21:50.191Z,4.10
2019-02-28T08:24:15.388Z,3.50
2019-02-28T08:26:43.667Z,3.65
2019-02-28T08:29:11.744Z,3.70
2019-02-28T08:31:39.020Z,4.12
2019-02-28T08:34:06.308Z,3.80
2019-02-28T08:36:33.634Z,3.62
2019-02-28T08:39:00.972Z,4.05
2019-02-28T08:41:28.616Z,3.65
2019-02-28T08:43:55.507Z,4.62
2019-02-28T08:46:22.552Z,4.40
2019-02-28T08:48:49.315Z,4.55
2019-02-28T08:51:16.318Z,5.03
2019-02-28T08:53:43.533Z,5.12
2019-02-28T08:56:11.062Z,5.08
2019-02-28T08:58:39.219Z,4.90
2019-02-28T09:01:06.716Z,4.80
2019-02-28T09:03:33.639Z,4.22
2019-02-28T09:06:00.895Z,3.98
2019-02-28T09:08:29.258Z,4.67
2019-02-28T09:10:56.293Z,4.10
2019-02-28T09:13:24.987Z,5.17
2019-02-28T09:15:51.927Z,5.30
2019-02-28T09:18:19.467Z,5.65
2019-02-28T09:20:46.234Z,5.95
2019-02-28T09:23:13.078Z,6.10
2019-02-28T09:25:39.952Z,6.35
2019-02-28T09:28:06.700Z,6.65
2019-02-28T09:30:45.374Z,5.37
2019-02-28T09:33:12.429Z,5.30
2019-02-28T09:35:42.352Z,5.85
2019-02-28T09:38:13.385Z,6.17
2019-02-28T09:40:37.957Z,5.92
2019-02-28T09:43:05.424Z,6.58
2019-02-28T09:45:33.091Z,7.08
2019-02-28T09:48:01.970Z,7.30
2019-02-28T09:50:28.692Z,7.37
2019-02-28T09:52:55.546Z,6.47
2019-02-28T09:55:22.343Z,7.20
2019-02-28T09:57:53.844Z,8.00
2019-02-28T10:00:27.704Z,5.95
2019-02-28T10:02:56.150Z,7.70
2019-02-28T10:05:22.890Z,7.70
2019-02-28T10:07:49.707Z,7.83
2019-02-28T10:10:29.198Z,6.17
2019-02-28T10:12:56.810Z,5.78
2019-02-28T10:15:24.048Z,7.97
2019-02-28T10:17:50.759Z,5.97
2019-02-28T10:20:28.545Z,6.10
2019-02-28T10:22:55.645Z,5.80
2019-02-28T10:25:22.721Z,5.45
2019-02-28T10:27:49.459Z,6.60
2019-02-28T10:30:31.716Z,5.58
2019-02-28T10:32:56.564Z,6.28
2019-02-28T10:35:23.435Z,6.67
2019-02-28T10:37:57.084Z,6.53
2019-02-28T10:40:26.737Z,7.10
2019-02-28T10:42:53.472Z,5.85
2019-02-28T10:45:21.407Z,6.12
2019-02-28T10:47:48.355Z,7.20
2019-02-28T10:50:35.065Z,6.20
2019-02-28T10:53:05.550Z,6.40
2019-02-28T10:55:31.160Z,5.10
2019-02-28T10:57:58.279Z,5.40
2019-02-28T11:00:33.526Z,6.08
2019-02-28T11:03:00.875Z,6.70
2019-02-28T11:05:35.589Z,5.95
2019-02-28T11:10:35.430Z,5.58
2019-02-28T11:13:05.562Z,5.20
2019-02-28T11:15:32.487Z,5.20
2019-02-28T11:17:59.259Z,5.47
2019-02-28T11:20:27.119Z,5.35
2019-02-28T11:22:53.978Z,5.70
2019-02-28T11:25:23.153Z,5.80
2019-02-28T11:27:49.898Z,5.55
2019-02-28T11:30:24.547Z,5.47
2019-02-28T11:32:52.428Z,5.40
2019-02-28T11:35:23.240Z,4.80
2019-02-28T11:37:51.471Z,5.30
2019-02-28T11:40:20.909Z,5.37
2019-02-28T11:42:47.874Z,5.92
2019-02-28T11:45:25.312Z,5.30
2019-02-28T11:47:54.232Z,6.10
2019-02-28T11:50:21.759Z,5.37
2019-02-28T11:52:48.754Z,6.20
2019-02-28T11:55:16.794Z,5.25
2019-02-28T11:57:44.537Z,5.75
2019-02-28T12:00:32.446Z,5.28
2019-02-28T12:03:01.169Z,5.47
2019-02-28T12:05:28.409Z,5.90
2019-02-28T12:07:55.375Z,5.45
2019-02-28T12:10:22.709Z,5.80
2019-02-28T12:12:49.744Z,4.97
2019-02-28T12:15:28.440Z,5.17
2019-02-28T12:17:56.500Z,5.58
2019-02-28T12:20:26.591Z,5.62
2019-02-28T12:22:55.997Z,4.60
2019-02-28T12:25:23.547Z,5.83
2019-02-28T12:27:51.653Z,5.10
2019-02-28T12:30:34.136Z,4.58
2019-02-28T12:33:01.635Z,4.60
2019-02-28T12:35:33.594Z,4.95
2019-02-28T12:37:58.306Z,5.17
2019-02-28T12:40:38.418Z,5.28
2019-02-28T12:43:10.060Z,5.60
2019-02-28T12:45:42.357Z,6.15
2019-02-28T12:48:09.735Z,4.92
2019-02-28T12:50:38.501Z,5.87
2019-02-28T12:53:05.882Z,5.90
2019-02-28T12:55:39.073Z,5.90
2019-02-28T12:58:06.873Z,5.12
2019-02-28T13:00:42.032Z,4.97
2019-02-28T13:03:11.507Z,6.22
2019-02-28T13:05:39.318Z,5.12
2019-02-28T13:08:07.105Z,5.40
2019-02-28T13:10:35.403Z,4.80
2019-02-28T13:13:07.688Z,4.62
2019-02-28T13:15:36.268Z,4.72
2019-02-28T13:18:08.025Z,4.90
2019-02-28T13:20:37.590Z,4.75
2019-02-28T13:23:05.306Z,4.50
2019-02-28T13:25:34.571Z,4.80
2019-02-28T13:28:05.336Z,5.20
2019-02-28T13:30:33.638Z,6.20
2019-02-28T13:33:03.946Z,5.87
2019-02-28T13:35:45.450Z,5.08
2019-02-28T13:38:06.797Z,5.03
2019-02-28T13:40:34.135Z,4.60
2019-02-28T13:43:02.086Z,4.47
2019-02-28T13:45:30.467Z,4.80
2019-02-28T13:47:58.753Z,4.28
2019-02-28T13:50:32.769Z,4.25
2019-02-28T13:53:02.534Z,4.57
2019-02-28T13:55:29.555Z,4.08
2019-02-28T13:57:56.485Z,4.70
2019-02-28T14:00:32.677Z,4.28
2019-02-28T14:03:09.667Z,4.05
2019-02-28T14:05:41.541Z,4.55
2019-02-28T14:08:11.372Z,3.98
2019-02-28T14:10:38.282Z,4.20
2019-02-28T14:13:05.555Z,4.17
2019-02-28T14:15:52.913Z,4.42
2019-02-28T14:18:19.491Z,3.98
2019-02-28T14:20:46.639Z,4.40
2019-02-28T14:23:13.911Z,3.92
2019-02-28T14:25:41.412Z,4.15
2019-02-28T14:28:08.347Z,4.37
2019-02-28T14:30:35.070Z,3.95
2019-02-28T14:33:01.793Z,4.17
2019-02-28T14:35:34.120Z,3.72
2019-02-28T14:37:57.583Z,3.83
2019-02-28T14:40:24.524Z,4.15
2019-02-28T14:42:51.605Z,4.30
2019-02-28T14:45:29.741Z,4.08
2019-02-28T14:47:57.418Z,3.65
2019-02-28T14:50:24.385Z,4.60
2019-02-28T14:52:53.831Z,4.15
2019-02-28T14:55:22.323Z,4.25
2019-02-28T14:57:49.729Z,3.70
2019-02-28T15:00:28.695Z,4.00
2019-02-28T15:02:59.433Z,4.17
2019-02-28T15:05:27.051Z,3.87
2019-02-28T15:07:54.471Z,4.15
2019-02-28T15:10:24.251Z,4.25
2019-02-28T15:12:51.879Z,4.00
2019-02-28T15:15:19.848Z,4.53
2019-02-28T15:17:47.540Z,3.75
2019-02-28T15:20:14.850Z,3.75
2019-02-28T15:22:41.566Z,4.40
2019-02-28T15:25:18.455Z,3.95
2019-02-28T15:27:44.155Z,4.30
2019-02-28T15:30:22.314Z,3.65
2019-02-28T15:32:50.769Z,3.72
2019-02-28T15:35:20.230Z,4.28
2019-02-28T15:37:47.369Z,3.98
2019-02-28T15:40:21.532Z,4.05
2019-02-28T15:42:47.741Z,4.30
2019-02-28T15:45:14.502Z,3.98
2019-02-28T15:47:41.368Z,3.87
2019-02-28T15:50:13.583Z,3.85
2019-02-28T15:52:41.640Z,3.60
2019-02-28T15:55:11.332Z,3.90
2019-02-28T15:57:38.067Z,3.90
2019-02-28T16:00:10.892Z,3.80
2019-02-28T16:02:38.633Z,3.77
2019-02-28T16:05:08.513Z,3.65
2019-02-28T16:07:35.833Z,3.60
2019-02-28T16:10:03.687Z,3.72
2019-02-28T16:12:31.095Z,3.98
2019-02-28T16:14:57.976Z,3.72
2019-02-28T16:17:24.768Z,3.98
2019-02-28T16:19:53.208Z,3.60
2019-02-28T16:22:20.507Z,3.62
2019-02-28T16:24:47.407Z,3.52
2019-02-28T16:27:14.576Z,3.80
2019-02-28T16:29:41.373Z,3.70
2019-02-28T16:32:08.459Z,3.77
2019-02-28T16:34:35.344Z,3.90
2019-02-28T16:37:02.849Z,4.03
2019-02-28T16:39:29.738Z,3.90
2019-02-28T16:41:56.542Z,3.55
2019-02-28T16:44:23.816Z,3.60
2019-02-28T16:46:50.910Z,3.92
2019-02-28T16:49:17.838Z,3.80
2019-02-28T16:51:44.624Z,3.67
2019-02-28T16:54:11.715Z,4.00
2019-02-28T16:56:38.793Z,3.80
2019-02-28T16:59:05.675Z,4.00
2019-02-28T17:01:32.509Z,3.60
2019-02-28T17:04:00.385Z,3.65
2019-02-28T17:06:27.261Z,3.98
2019-02-28T17:08:56.780Z,3.62
2019-02-28T17:11:25.074Z,3.72
2019-02-28T17:13:53.717Z,3.80
2019-02-28T17:16:33.674Z,3.42
2019-02-28T17:19:00.457Z,3.50
2019-02-28T17:21:27.167Z,3.33
2019-02-28T17:23:54.290Z,3.75
2019-02-28T17:26:22.971Z,3.70
2019-02-28T17:28:51.602Z,3.77
2019-02-28T17:31:26.284Z,3.52
2019-02-28T17:33:53.223Z,3.55
2019-02-28T17:36:20.622Z,3.40
2019-02-28T17:38:47.458Z,3.62
2019-02-28T17:41:14.197Z,3.45
2019-02-28T17:43:41.517Z,3.40
2019-02-28T17:46:14.821Z,3.80
2019-02-28T17:49:23.331Z,3.50
2019-02-28T17:51:58.146Z,4.00
2019-02-28T17:54:36.265Z,3.70
2019-02-28T17:57:23.710Z,3.67
2019-02-28T18:00:29.959Z,3.67
2019-02-28T18:03:23.635Z,3.90
2019-02-28T18:06:14.589Z,3.50
2019-02-28T18:08:50.272Z,3.90
2019-02-28T18:11:35.101Z,3.47
2019-02-28T18:14:16.694Z,4.17
2019-02-28T18:17:19.269Z,3.77
2019-02-28T18:20:25.829Z,4.05
2019-02-28T18:23:33.797Z,4.12
2019-02-28T18:26:20.998Z,3.85
2019-02-28T18:29:25.352Z,3.52
2019-02-28T18:31:53.846Z,3.90
2019-02-28T18:34:21.426Z,3.80
2019-02-28T18:36:48.350Z,4.10
2019-02-28T18:39:15.086Z,4.28
2019-02-28T18:41:42.982Z,3.58
2019-02-28T18:44:10.353Z,3.85
2019-02-28T18:46:37.091Z,3.95
2019-02-28T18:49:03.925Z,3.80
2019-02-28T18:51:30.653Z,4.05
2019-02-28T18:53:57.618Z,3.87
2019-02-28T18:56:24.786Z,4.30
2019-02-28T18:58:51.611Z,4.10
2019-02-28T19:01:18.361Z,4.40
2019-02-28T19:03:45.092Z,4.37
2019-02-28T19:06:11.858Z,4.10
2019-02-28T19:08:38.857Z,4.55
2019-02-28T19:11:05.769Z,4.35
2019-02-28T19:13:32.866Z,4.05
2019-02-28T19:15:59.665Z,4.20
2019-02-28T19:18:26.413Z,4.10
2019-02-28T19:20:53.203Z,4.35
2019-02-28T19:23:19.959Z,4.20
2019-02-28T19:25:46.666Z,4.33
2019-02-28T19:28:13.712Z,3.90
2019-02-28T19:30:40.620Z,4.15
2019-02-28T19:33:07.341Z,4.20
2019-02-28T19:35:34.079Z,4.42
2019-02-28T19:38:01.082Z,4.28
2019-02-28T19:40:27.805Z,4.10
2019-02-28T19:42:54.546Z,4.22
2019-02-28T19:45:38.874Z,4.33
2019-02-28T19:48:05.667Z,4.30
2019-02-28T19:50:32.505Z,4.40
2019-02-28T19:52:59.248Z,4.22
2019-02-28T19:55:26.295Z,4.12
2019-02-28T19:57:53.123Z,4.20
2019-02-28T20:00:19.835Z,4.47
2019-02-28T20:02:46.840Z,4.10
2019-02-28T20:05:14.123Z,4.00
2019-02-28T20:07:40.881Z,4.40
2019-02-28T20:10:12.318Z,4.75
2019-02-28T20:12:39.078Z,4.08
2019-02-28T20:15:10.186Z,4.30
2019-02-28T20:17:37.249Z,3.90
2019-02-28T20:20:11.684Z,3.87
2019-02-28T20:22:38.556Z,4.37
2019-02-28T20:25:10.190Z,4.10
2019-02-28T20:27:37.080Z,3.98
2019-02-28T20:30:09.801Z,3.98
2019-02-28T20:32:36.837Z,3.77
2019-02-28T20:35:06.774Z,4.42
2019-02-28T20:37:33.529Z,4.12
2019-02-28T20:40:00.321Z,4.08
2019-02-28T20:42:27.100Z,3.83
2019-02-28T20:44:53.806Z,3.77
2019-02-28T20:47:20.570Z,4.05
2019-02-28T20:49:47.526Z,4.10
2019-02-28T20:52:15.029Z,4.08
2019-02-28T20:54:42.212Z,4.20
2019-02-28T20:57:09.019Z,3.70
2019-02-28T20:59:35.747Z,4.10
2019-02-28T21:02:02.670Z,3.70
2019-02-28T21:04:29.407Z,3.95
2019-02-28T21:06:56.250Z,3.80
2019-02-28T21:09:23.570Z,4.22
2019-02-28T21:11:50.468Z,3.65
2019-02-28T21:14:17.567Z,3.60
2019-02-28T21:16:44.309Z,4.10
2019-02-28T21:19:11.150Z,3.83
2019-02-28T21:21:37.874Z,3.67
2019-02-28T21:24:06.051Z,4.15
2019-02-28T21:26:33.113Z,3.75
2019-02-28T21:28:59.818Z,3.98
2019-02-28T21:31:26.688Z,3.77
2019-02-28T21:33:53.565Z,4.03
2019-02-28T21:36:20.787Z,3.70
2019-02-28T21:38:47.533Z,3.62
2019-02-28T21:41:14.718Z,3.55
2019-02-28T21:43:41.487Z,3.80
2019-02-28T21:46:08.209Z,3.72
2019-02-28T21:48:34.963Z,3.95
2019-02-28T21:51:02.836Z,3.60
2019-02-28T21:53:29.865Z,4.10
2019-02-28T21:55:56.623Z,3.20
2019-02-28T21:58:23.385Z,3.90
2019-02-28T22:00:50.477Z,4.00
2019-02-28T22:03:17.230Z,3.95
2019-02-28T22:05:44.458Z,3.33
2019-02-28T22:08:13.563Z,3.45
2019-02-28T22:10:40.548Z,3.52
2019-02-28T22:13:07.286Z,3.40
2019-02-28T22:15:34.023Z,3.37
2019-02-28T22:18:00.759Z,3.47
2019-02-28T22:20:27.476Z,3.60
2019-02-28T22:22:54.356Z,3.55
2019-02-28T22:25:21.652Z,3.47
2019-02-28T22:27:48.378Z,3.85
2019-02-28T22:30:23.808Z,3.62
2019-02-28T22:32:52.458Z,3.80
2019-02-28T22:35:21.539Z,3.37
2019-02-28T22:37:49.072Z,3.50
2019-02-28T22:40:16.057Z,3.72
2019-02-28T22:42:42.897Z,3.52
2019-02-28T22:45:09.776Z,3.25
2019-02-28T22:47:36.957Z,3.33
2019-02-28T22:50:07.219Z,3.33
2019-02-28T22:52:34.338Z,3.37
2019-02-28T22:55:03.086Z,3.27
2019-02-28T22:57:29.822Z,3.40
2019-02-28T22:59:56.698Z,3.15
2019-02-28T23:02:23.827Z,3.27
2019-02-28T23:04:51.029Z,3.33
2019-02-28T23:07:18.153Z,3.47
2019-02-28T23:09:45.332Z,3.30
2019-02-28T23:12:12.356Z,3.52
2019-02-28T23:14:39.532Z,3.42
2019-02-28T23:17:08.569Z,3.55
2019-02-28T23:19:35.990Z,3.40
2019-02-28T23:22:03.220Z,3.08
2019-02-28T23:24:30.056Z,3.00
2019-02-28T23:27:16.285Z,3.60
2019-02-28T23:29:58.135Z,3.02
2019-02-28T23:32:39.723Z,3.17
2019-02-28T23:35:15.340Z,2.95
2019-02-28T23:37:42.058Z,3.10
2019-02-28T23:40:08.832Z,3.10
2019-02-28T23:42:36.079Z,2.80
2019-02-28T23:45:05.155Z,3.02
2019-02-28T23:47:31.990Z,3.40
2019-02-28T23:49:58.746Z,3.20
2019-02-28T23:52:25.626Z,2.95
2019-02-28T23:54:52.374Z,3.22
2019-02-28T23:57:19.098Z,2.90
2019-02-28T23:59:46.634Z,2.85
